Startpagina
METAR-TAF:

METAR-TAF

Vliegvelden :

Diepholz, Duitsland

breedte: 52-35N, lengte: 008-21E, hoogte: 39 m

Actueel weer

Dit bericht is 13 uur en het 11 minuten geleden gemaakt, om 14:20 UTC
Wind 4 kt uit het zuiden
Temperatuur 6°C
Vochtigheid 70%
Druk 1030 hPa
Zicht 10 km of meer
Verspreide wolken op 1900 ft

METAR: ETND 231420Z 18004KT 9999 SCT019 06/01 Q1030 BLU+

Tijdstip: 04:31 (03:31 UTC)

Verwachting

Dit bericht is 11 uur en het 20 minuten geleden gemaakt, om 16:11 UTC
Verwachting geldig van 23 om 16 UTC tot 23 om 21 UTC
Wind 4 kt uit het zuidzuidwesten
Zicht: 8000 m
Verspreide wolken op 500 ft
Verspreide wolken op 2000 ft
Tijdelijke
van 23 om 16 UTC tot 23 om 21 UTC
Wind 3 kt uit variabele richting
Zicht: 1615 m
Verspreide wolken op 200 ft
Gebroken wolken op 2000 ft
nevel

TAF: ETND 231611Z 2316/2321 21004KT 8000 NSW SCT005 SCT020 TEMPO 2316/2321 VRB03KT 4000 BR SCT002 BKN020 CANCEL 1615 BY ETGL

Waarnemingen en weersverwachtingen van meer dan 4000 vliegvelden (METAR en TAF).

De beschikbare stations zijn de gele en rode punten op de kaart.

Ga met uw muis naar het station om de naam te zien.

Klik dan om waarnemingen en weersverwachtingen te zien.

kaart wijzigen: klik op de groene knoppen met een zwart kruis om in te zoomen, op de groene knop met een streepje om uit te zoomen of op de groene pijlen voor aangrenzende kaarten.


METAR-TAF: